SWA1632 KBWI-KBOS
Flight info
| Callsign | SWA1632 |
|---|---|
| Flight time | 1h 14m |
| Altitude | 37000 |
| Route | DUKPN1 BROSS Q419 JFK ROBUC3 |
| Aircraft | B737/M-SDE2E3FGHIRWXY/LB1 |
Departure
| Time | 2026-05-06 23:55 |
|---|---|
| Airport | Baltimore/Washington International Thurgood Marshall Airport (KBWI) |
Arrival
| Time | 2026-05-07 01:10 |
|---|---|
| Airport | Boston Logan International Airport (KBOS) |
| Time | Latitude | Longitude | Altitude | Speed | Heading |
|---|---|---|---|---|---|
| 2026-05-06 23:23 | 39.17617 | -76.66868 | 155 ft | 0 kts | 314° |
| 2026-05-06 23:44 | 39.17616 | -76.66867 | 154 ft | 2 kts | 314° |
| 2026-05-06 23:44 | 39.17599 | -76.66841 | 154 ft | 4 kts | 298° |
| 2026-05-06 23:45 | 39.17591 | -76.66810 | 154 ft | 4 kts | 268° |
| 2026-05-06 23:45 | 39.17598 | -76.66782 | 154 ft | 4 kts | 209° |
| 2026-05-06 23:45 | 39.17607 | -76.66777 | 154 ft | 0 kts | 184° |
| 2026-05-06 23:49 | 39.17601 | -76.66778 | 154 ft | 2 kts | 184° |
| 2026-05-06 23:49 | 39.17577 | -76.66779 | 154 ft | 5 kts | 183° |
| 2026-05-06 23:50 | 39.17538 | -76.66765 | 154 ft | 7 kts | 142° |
| 2026-05-06 23:50 | 39.17520 | -76.66591 | 153 ft | 13 kts | 80° |
| 2026-05-06 23:50 | 39.17573 | -76.66503 | 153 ft | 13 kts | 77° |
| 2026-05-06 23:51 | 39.17538 | -76.66401 | 152 ft | 13 kts | 121° |
| 2026-05-06 23:51 | 39.17487 | -76.66300 | 148 ft | 14 kts | 123° |
| 2026-05-06 23:51 | 39.17455 | -76.66186 | 148 ft | 13 kts | 94° |
| 2026-05-06 23:51 | 39.17448 | -76.66069 | 147 ft | 13 kts | 93° |
| 2026-05-06 23:52 | 39.17441 | -76.65955 | 145 ft | 13 kts | 95° |
| 2026-05-06 23:52 | 39.17436 | -76.65843 | 143 ft | 13 kts | 95° |
| 2026-05-06 23:52 | 39.17429 | -76.65720 | 140 ft | 14 kts | 95° |
| 2026-05-06 23:52 | 39.17422 | -76.65600 | 141 ft | 12 kts | 93° |
| 2026-05-06 23:53 | 39.17378 | -76.65524 | 140 ft | 10 kts | 176° |
| 2026-05-06 23:53 | 39.17369 | -76.65523 | 140 ft | 0 kts | 176° |
| 2026-05-06 23:54 | 39.17352 | -76.65522 | 140 ft | 5 kts | 176° |
| 2026-05-06 23:54 | 39.17310 | -76.65523 | 139 ft | 8 kts | 185° |
| 2026-05-06 23:54 | 39.17281 | -76.65580 | 139 ft | 13 kts | 275° |
| 2026-05-06 23:55 | 39.17304 | -76.65966 | 143 ft | 81 kts | 274° |
| 2026-05-06 23:55 | 39.17361 | -76.67001 | 155 ft | 148 kts | 271° |
| 2026-05-06 23:55 | 39.17415 | -76.68424 | 709 ft | 158 kts | 273° |
| 2026-05-06 23:55 | 39.17524 | -76.69826 | 1651 ft | 154 kts | 274° |
| 2026-05-06 23:56 | 39.17584 | -76.71158 | 2574 ft | 145 kts | 272° |
| 2026-05-06 23:56 | 39.17663 | -76.72426 | 3436 ft | 139 kts | 272° |
| 2026-05-06 23:56 | 39.17460 | -76.73717 | 3853 ft | 169 kts | 235° |
| 2026-05-06 23:56 | 39.16386 | -76.74619 | 4165 ft | 210 kts | 197° |
| 2026-05-06 23:57 | 39.14860 | -76.74355 | 4507 ft | 247 kts | 155° |
| 2026-05-06 23:57 | 39.13460 | -76.72994 | 5227 ft | 259 kts | 146° |
| 2026-05-06 23:57 | 39.12039 | -76.71554 | 6035 ft | 266 kts | 148° |
| 2026-05-06 23:57 | 39.10557 | -76.70142 | 6678 ft | 265 kts | 150° |
| 2026-05-06 23:58 | 39.09115 | -76.68646 | 6982 ft | 274 kts | 136° |
| 2026-05-06 23:58 | 39.08248 | -76.66431 | 7005 ft | 286 kts | 103° |
| 2026-05-06 23:58 | 39.08195 | -76.63791 | 7218 ft | 307 kts | 88° |
| 2026-05-06 23:58 | 39.08323 | -76.61002 | 7971 ft | 316 kts | 87° |
| 2026-05-06 23:59 | 39.08465 | -76.58160 | 8960 ft | 318 kts | 88° |
| 2026-05-06 23:59 | 39.08598 | -76.55303 | 9942 ft | 322 kts | 88° |
| 2026-05-06 23:59 | 39.08720 | -76.52361 | 10517 ft | 339 kts | 88° |
| 2026-05-06 23:59 | 39.08841 | -76.49237 | 10990 ft | 357 kts | 89° |
| 2026-05-07 00:00 | 39.08986 | -76.46044 | 11727 ft | 366 kts | 84° |
| 2026-05-07 00:00 | 39.09632 | -76.42862 | 12590 ft | 370 kts | 70° |
| 2026-05-07 00:00 | 39.10512 | -76.39725 | 13466 ft | 376 kts | 69° |
| 2026-05-07 00:00 | 39.11410 | -76.36585 | 13875 ft | 378 kts | 69° |
| 2026-05-07 00:01 | 39.12319 | -76.33353 | 14022 ft | 380 kts | 69° |
| 2026-05-07 00:01 | 39.13200 | -76.30136 | 14027 ft | 382 kts | 70° |
| 2026-05-07 00:01 | 39.14082 | -76.26868 | 14491 ft | 390 kts | 70° |
| 2026-05-07 00:01 | 39.14970 | -76.23556 | 15377 ft | 392 kts | 70° |
| 2026-05-07 00:02 | 39.15636 | -76.20133 | 16235 ft | 397 kts | 80° |
| 2026-05-07 00:02 | 39.15999 | -76.16577 | 17010 ft | 404 kts | 83° |
| 2026-05-07 00:02 | 39.16326 | -76.12946 | 17735 ft | 412 kts | 82° |
| 2026-05-07 00:02 | 39.16686 | -76.09420 | 18417 ft | 418 kts | 81° |
| 2026-05-07 00:03 | 39.17101 | -76.05683 | 19042 ft | 425 kts | 80° |
| 2026-05-07 00:03 | 39.17488 | -76.02319 | 19610 ft | 432 kts | 79° |
| 2026-05-07 00:03 | 39.17931 | -75.98466 | 20245 ft | 439 kts | 80° |
| 2026-05-07 00:03 | 39.18379 | -75.94533 | 20869 ft | 447 kts | 80° |
| 2026-05-07 00:04 | 39.18990 | -75.90583 | 21445 ft | 451 kts | 66° |
| 2026-05-07 00:04 | 39.20410 | -75.87001 | 22083 ft | 445 kts | 46° |
| 2026-05-07 00:04 | 39.22461 | -75.84163 | 22736 ft | 434 kts | 31° |
| 2026-05-07 00:04 | 39.24758 | -75.81650 | 23402 ft | 437 kts | 29° |
| 2026-05-07 00:05 | 39.27128 | -75.79152 | 23936 ft | 442 kts | 28° |
| 2026-05-07 00:05 | 39.29517 | -75.76628 | 24509 ft | 446 kts | 29° |
| 2026-05-07 00:05 | 39.31911 | -75.74059 | 25130 ft | 449 kts | 30° |
| 2026-05-07 00:05 | 39.34315 | -75.71443 | 25691 ft | 454 kts | 30° |
| 2026-05-07 00:06 | 39.36730 | -75.68789 | 26271 ft | 458 kts | 30° |
| 2026-05-07 00:06 | 39.39172 | -75.66095 | 26741 ft | 465 kts | 30° |
| 2026-05-07 00:06 | 39.41650 | -75.63362 | 27257 ft | 469 kts | 30° |
| 2026-05-07 00:06 | 39.44109 | -75.60649 | 27802 ft | 472 kts | 30° |
| 2026-05-07 00:07 | 39.46653 | -75.57849 | 28332 ft | 476 kts | 30° |
| 2026-05-07 00:07 | 39.49154 | -75.55105 | 28829 ft | 480 kts | 30° |
| 2026-05-07 00:07 | 39.51712 | -75.52296 | 29319 ft | 484 kts | 30° |
| 2026-05-07 00:07 | 39.54292 | -75.49457 | 29803 ft | 488 kts | 30° |
| 2026-05-07 00:08 | 39.56886 | -75.46595 | 30250 ft | 492 kts | 30° |
| 2026-05-07 00:08 | 39.59511 | -75.43698 | 30582 ft | 497 kts | 29° |
| 2026-05-07 00:08 | 39.62148 | -75.40785 | 30994 ft | 498 kts | 30° |
| 2026-05-07 00:08 | 39.64789 | -75.37864 | 31488 ft | 499 kts | 29° |
| 2026-05-07 00:09 | 39.67440 | -75.34933 | 31888 ft | 501 kts | 29° |
| 2026-05-07 00:09 | 39.70100 | -75.31989 | 32315 ft | 502 kts | 29° |
| 2026-05-07 00:09 | 39.72755 | -75.29046 | 32818 ft | 501 kts | 28° |
| 2026-05-07 00:09 | 39.75398 | -75.26112 | 33335 ft | 499 kts | 28° |
| 2026-05-07 00:10 | 39.78033 | -75.23185 | 33824 ft | 498 kts | 28° |
| 2026-05-07 00:10 | 39.80583 | -75.20064 | 34183 ft | 510 kts | 35° |
| 2026-05-07 00:10 | 39.82927 | -75.16656 | 34553 ft | 514 kts | 38° |
| 2026-05-07 00:10 | 39.85263 | -75.13054 | 34955 ft | 514 kts | 39° |
| 2026-05-07 00:11 | 39.87524 | -75.09537 | 35342 ft | 512 kts | 38° |
| 2026-05-07 00:11 | 39.89825 | -75.06007 | 35667 ft | 511 kts | 38° |
| 2026-05-07 00:11 | 39.92134 | -75.02522 | 36146 ft | 505 kts | 37° |
| 2026-05-07 00:11 | 39.94435 | -74.99081 | 36551 ft | 504 kts | 37° |
| 2026-05-07 00:12 | 39.96743 | -74.95619 | 36756 ft | 509 kts | 38° |
| 2026-05-07 00:12 | 39.98912 | -74.91885 | 36863 ft | 520 kts | 44° |
| 2026-05-07 00:12 | 40.02903 | -74.83949 | 36865 ft | 524 kts | 47° |
| 2026-05-07 00:13 | 40.06833 | -74.75944 | 36855 ft | 522 kts | 46° |
| 2026-05-07 00:13 | 40.10824 | -74.68026 | 36888 ft | 521 kts | 46° |
| 2026-05-07 00:14 | 40.14835 | -74.60133 | 36845 ft | 522 kts | 46° |
| 2026-05-07 00:14 | 40.18855 | -74.52229 | 36845 ft | 518 kts | 42° |
| 2026-05-07 00:15 | 40.21102 | -74.48625 | 36844 ft | 504 kts | 33° |
| 2026-05-07 00:15 | 40.23609 | -74.45605 | 36863 ft | 491 kts | 25° |
| 2026-05-07 00:15 | 40.28988 | -74.40016 | 36920 ft | 496 kts | 24° |
| 2026-05-07 00:16 | 40.34405 | -74.34355 | 36828 ft | 499 kts | 25° |
| 2026-05-07 00:16 | 40.39789 | -74.28594 | 36837 ft | 500 kts | 26° |
| 2026-05-07 00:17 | 40.45161 | -74.22811 | 36848 ft | 498 kts | 26° |
| 2026-05-07 00:17 | 40.50549 | -74.17019 | 36185 ft | 502 kts | 27° |
| 2026-05-07 00:18 | 40.53093 | -74.13786 | 35590 ft | 518 kts | 39° |
| 2026-05-07 00:18 | 40.55244 | -74.09897 | 34966 ft | 534 kts | 51° |
| 2026-05-07 00:18 | 40.56915 | -74.05465 | 34327 ft | 548 kts | 64° |
| 2026-05-07 00:18 | 40.58068 | -74.00683 | 33894 ft | 548 kts | 69° |
| 2026-05-07 00:19 | 40.59087 | -73.95862 | 33291 ft | 546 kts | 70° |
| 2026-05-07 00:19 | 40.60094 | -73.91073 | 32814 ft | 540 kts | 70° |
| 2026-05-07 00:19 | 40.61144 | -73.86351 | 32341 ft | 535 kts | 69° |
| 2026-05-07 00:19 | 40.62224 | -73.81680 | 31881 ft | 531 kts | 69° |
| 2026-05-07 00:20 | 40.63547 | -73.77204 | 31434 ft | 518 kts | 54° |
| 2026-05-07 00:20 | 40.65568 | -73.73414 | 30982 ft | 496 kts | 39° |
| 2026-05-07 00:20 | 40.67876 | -73.70077 | 30565 ft | 490 kts | 37° |
| 2026-05-07 00:20 | 40.70169 | -73.66861 | 30096 ft | 487 kts | 37° |
| 2026-05-07 00:21 | 40.72479 | -73.63606 | 29571 ft | 484 kts | 38° |
| 2026-05-07 00:21 | 40.74750 | -73.60353 | 29106 ft | 479 kts | 39° |
| 2026-05-07 00:21 | 40.76983 | -73.57107 | 28625 ft | 476 kts | 39° |
| 2026-05-07 00:21 | 40.79192 | -73.53869 | 28143 ft | 476 kts | 39° |
| 2026-05-07 00:22 | 40.81461 | -73.50547 | 27742 ft | 499 kts | 39° |
| 2026-05-07 00:22 | 40.83845 | -73.47059 | 27210 ft | 524 kts | 40° |
| 2026-05-07 00:22 | 40.86261 | -73.43495 | 26869 ft | 528 kts | 40° |
| 2026-05-07 00:22 | 40.88713 | -73.39864 | 26851 ft | 530 kts | 40° |
| 2026-05-07 00:23 | 40.91179 | -73.36215 | 26837 ft | 534 kts | 40° |
| 2026-05-07 00:23 | 40.93628 | -73.32592 | 26829 ft | 534 kts | 40° |
| 2026-05-07 00:23 | 40.96065 | -73.28974 | 26656 ft | 519 kts | 41° |
| 2026-05-07 00:23 | 40.98477 | -73.25386 | 25977 ft | 515 kts | 40° |
| 2026-05-07 00:24 | 41.00873 | -73.21835 | 24998 ft | 519 kts | 40° |
| 2026-05-07 00:24 | 41.03203 | -73.18369 | 24898 ft | 504 kts | 40° |
| 2026-05-07 00:24 | 41.05570 | -73.14857 | 24624 ft | 517 kts | 40° |
| 2026-05-07 00:24 | 41.07992 | -73.11271 | 24341 ft | 526 kts | 41° |
| 2026-05-07 00:25 | 41.10424 | -73.07648 | 24077 ft | 523 kts | 41° |
| 2026-05-07 00:25 | 41.12822 | -73.04055 | 23798 ft | 517 kts | 41° |
| 2026-05-07 00:25 | 41.15199 | -73.00494 | 23574 ft | 513 kts | 41° |
| 2026-05-07 00:25 | 41.16765 | -72.98150 | 23353 ft | 511 kts | 41° |
| 2026-05-07 00:26 | 41.19911 | -72.93439 | 22935 ft | 507 kts | 41° |
| 2026-05-07 00:26 | 41.22082 | -72.89691 | 22809 ft | 518 kts | 53° |
| 2026-05-07 00:26 | 41.23799 | -72.85531 | 22695 ft | 520 kts | 59° |
| 2026-05-07 00:26 | 41.25408 | -72.81174 | 22568 ft | 532 kts | 60° |
| 2026-05-07 00:27 | 41.27012 | -72.76686 | 22437 ft | 544 kts | 61° |
| 2026-05-07 00:27 | 41.28658 | -72.72112 | 22294 ft | 551 kts | 60° |
| 2026-05-07 00:27 | 41.30340 | -72.67535 | 22202 ft | 547 kts | 60° |
| 2026-05-07 00:27 | 41.32023 | -72.63036 | 22047 ft | 541 kts | 60° |
| 2026-05-07 00:28 | 41.33710 | -72.58581 | 21885 ft | 538 kts | 60° |
| 2026-05-07 00:28 | 41.34859 | -72.55567 | 21826 ft | 541 kts | 60° |
| 2026-05-07 00:28 | 41.36552 | -72.51129 | 21692 ft | 544 kts | 60° |
| 2026-05-07 00:28 | 41.38262 | -72.46630 | 21568 ft | 541 kts | 60° |
| 2026-05-07 00:29 | 41.39954 | -72.42165 | 21450 ft | 540 kts | 60° |
| 2026-05-07 00:29 | 41.41636 | -72.37708 | 21313 ft | 538 kts | 60° |
| 2026-05-07 00:30 | 41.46653 | -72.24363 | 20912 ft | 534 kts | 61° |
| 2026-05-07 00:30 | 41.48293 | -72.19989 | 20754 ft | 532 kts | 61° |
| 2026-05-07 00:30 | 41.49925 | -72.15570 | 20365 ft | 528 kts | 62° |
| 2026-05-07 00:30 | 41.51523 | -72.11186 | 20005 ft | 521 kts | 62° |
| 2026-05-07 00:31 | 41.53092 | -72.06867 | 19653 ft | 516 kts | 63° |
| 2026-05-07 00:31 | 41.54657 | -72.02570 | 19304 ft | 512 kts | 63° |
| 2026-05-07 00:31 | 41.56191 | -71.98277 | 18954 ft | 510 kts | 65° |
| 2026-05-07 00:31 | 41.57532 | -71.93903 | 18616 ft | 507 kts | 69° |
| 2026-05-07 00:32 | 41.58786 | -71.89521 | 18255 ft | 504 kts | 70° |
| 2026-05-07 00:32 | 41.60041 | -71.85173 | 17874 ft | 500 kts | 70° |
| 2026-05-07 00:32 | 41.61305 | -71.80857 | 17519 ft | 497 kts | 69° |
| 2026-05-07 00:32 | 41.62569 | -71.76581 | 17303 ft | 492 kts | 69° |
| 2026-05-07 00:33 | 41.63795 | -71.72446 | 17123 ft | 464 kts | 69° |
| 2026-05-07 00:33 | 41.64947 | -71.68550 | 16961 ft | 439 kts | 69° |
| 2026-05-07 00:33 | 41.66038 | -71.64845 | 16809 ft | 416 kts | 69° |
| 2026-05-07 00:33 | 41.67063 | -71.61354 | 16657 ft | 392 kts | 69° |
| 2026-05-07 00:34 | 41.68038 | -71.58027 | 16309 ft | 378 kts | 69° |
| 2026-05-07 00:34 | 41.68990 | -71.54772 | 15646 ft | 375 kts | 70° |
| 2026-05-07 00:34 | 41.69917 | -71.51601 | 15405 ft | 367 kts | 70° |
| 2026-05-07 00:34 | 41.70849 | -71.48409 | 15151 ft | 372 kts | 70° |
| 2026-05-07 00:35 | 41.71794 | -71.45166 | 14894 ft | 376 kts | 70° |
| 2026-05-07 00:35 | 41.72799 | -71.41923 | 14607 ft | 375 kts | 63° |
| 2026-05-07 00:35 | 41.74066 | -71.38876 | 14365 ft | 376 kts | 58° |
| 2026-05-07 00:35 | 41.75432 | -71.35871 | 14107 ft | 379 kts | 58° |
| 2026-05-07 00:36 | 41.76780 | -71.32848 | 13840 ft | 376 kts | 59° |
| 2026-05-07 00:36 | 41.78083 | -71.29839 | 13560 ft | 370 kts | 59° |
| 2026-05-07 00:36 | 41.79351 | -71.26868 | 13275 ft | 364 kts | 59° |
| 2026-05-07 00:36 | 41.80600 | -71.23931 | 13011 ft | 362 kts | 59° |
| 2026-05-07 00:37 | 41.81845 | -71.20999 | 12761 ft | 361 kts | 59° |
| 2026-05-07 00:37 | 41.83087 | -71.18078 | 12510 ft | 359 kts | 59° |
| 2026-05-07 00:37 | 41.84322 | -71.15172 | 12260 ft | 358 kts | 59° |
| 2026-05-07 00:37 | 41.85550 | -71.12278 | 12045 ft | 353 kts | 59° |
| 2026-05-07 00:38 | 41.86763 | -71.09452 | 11814 ft | 345 kts | 59° |
| 2026-05-07 00:38 | 41.87948 | -71.06712 | 11604 ft | 342 kts | 59° |
| 2026-05-07 00:38 | 41.89144 | -71.03951 | 11412 ft | 342 kts | 58° |
| 2026-05-07 00:38 | 41.90340 | -71.01188 | 11193 ft | 343 kts | 59° |
| 2026-05-07 00:39 | 41.91536 | -70.98417 | 10991 ft | 344 kts | 59° |
| 2026-05-07 00:39 | 41.92736 | -70.95634 | 10785 ft | 344 kts | 59° |
| 2026-05-07 00:39 | 41.93934 | -70.92853 | 10577 ft | 343 kts | 59° |
| 2026-05-07 00:39 | 41.95125 | -70.90083 | 10371 ft | 342 kts | 59° |
| 2026-05-07 00:40 | 41.96312 | -70.87319 | 10130 ft | 339 kts | 59° |
| 2026-05-07 00:40 | 41.97465 | -70.84634 | 9930 ft | 331 kts | 59° |
| 2026-05-07 00:40 | 41.98606 | -70.81971 | 9731 ft | 324 kts | 59° |
| 2026-05-07 00:40 | 41.99726 | -70.79358 | 9554 ft | 322 kts | 59° |
| 2026-05-07 00:41 | 42.00842 | -70.76759 | 9360 ft | 320 kts | 58° |
| 2026-05-07 00:41 | 42.02152 | -70.74357 | 9119 ft | 317 kts | 45° |
| 2026-05-07 00:41 | 42.03643 | -70.72192 | 8938 ft | 314 kts | 43° |
| 2026-05-07 00:41 | 42.05145 | -70.70066 | 8751 ft | 312 kts | 43° |
| 2026-05-07 00:42 | 42.06625 | -70.67918 | 8536 ft | 311 kts | 44° |
| 2026-05-07 00:42 | 42.08074 | -70.65768 | 8361 ft | 309 kts | 45° |
| 2026-05-07 00:42 | 42.09509 | -70.63620 | 8177 ft | 308 kts | 45° |
| 2026-05-07 00:42 | 42.11098 | -70.61808 | 7961 ft | 300 kts | 22° |
| 2026-05-07 00:43 | 42.13055 | -70.60904 | 7716 ft | 291 kts | 6° |
| 2026-05-07 00:43 | 42.15014 | -70.60356 | 7450 ft | 292 kts | 4° |
| 2026-05-07 00:43 | 42.17017 | -70.59831 | 7183 ft | 290 kts | 5° |
| 2026-05-07 00:43 | 42.18983 | -70.59309 | 6912 ft | 286 kts | 4° |
| 2026-05-07 00:44 | 42.20920 | -70.58787 | 6638 ft | 282 kts | 5° |
| 2026-05-07 00:44 | 42.22843 | -70.58262 | 6371 ft | 280 kts | 5° |
| 2026-05-07 00:44 | 42.24747 | -70.57737 | 6085 ft | 279 kts | 5° |
| 2026-05-07 00:44 | 42.26641 | -70.57209 | 5812 ft | 277 kts | 5° |
| 2026-05-07 00:45 | 42.28505 | -70.56687 | 5544 ft | 275 kts | 5° |
| 2026-05-07 00:45 | 42.30374 | -70.56163 | 5291 ft | 273 kts | 4° |
| 2026-05-07 00:45 | 42.32217 | -70.56109 | 5052 ft | 260 kts | 337° |
| 2026-05-07 00:45 | 42.33810 | -70.57148 | 5027 ft | 251 kts | 316° |
| 2026-05-07 00:46 | 42.35097 | -70.58698 | 5025 ft | 247 kts | 309° |
| 2026-05-07 00:46 | 42.36319 | -70.60322 | 5026 ft | 246 kts | 309° |
| 2026-05-07 00:46 | 42.37538 | -70.61955 | 5013 ft | 246 kts | 309° |
| 2026-05-07 00:46 | 42.38757 | -70.63586 | 5003 ft | 246 kts | 309° |
| 2026-05-07 00:47 | 42.39978 | -70.65209 | 5011 ft | 246 kts | 309° |
| 2026-05-07 00:47 | 42.41201 | -70.66831 | 5004 ft | 246 kts | 309° |
| 2026-05-07 00:47 | 42.42422 | -70.68446 | 5001 ft | 245 kts | 309° |
| 2026-05-07 00:47 | 42.43645 | -70.70061 | 4998 ft | 245 kts | 309° |
| 2026-05-07 00:48 | 42.44866 | -70.71674 | 5001 ft | 245 kts | 309° |
| 2026-05-07 00:48 | 42.46085 | -70.73283 | 5004 ft | 245 kts | 310° |
| 2026-05-07 00:48 | 42.47307 | -70.74895 | 5004 ft | 245 kts | 310° |
| 2026-05-07 00:48 | 42.48529 | -70.76509 | 5002 ft | 246 kts | 310° |
| 2026-05-07 00:49 | 42.49754 | -70.78126 | 5004 ft | 246 kts | 309° |
| 2026-05-07 00:49 | 42.50980 | -70.79745 | 4999 ft | 242 kts | 309° |
| 2026-05-07 00:49 | 42.52336 | -70.80981 | 4988 ft | 239 kts | 334° |
| 2026-05-07 00:49 | 42.53983 | -70.81266 | 4995 ft | 243 kts | 358° |
| 2026-05-07 00:50 | 42.55648 | -70.80724 | 5013 ft | 250 kts | 13° |
| 2026-05-07 00:50 | 42.57295 | -70.79905 | 5010 ft | 254 kts | 15° |
| 2026-05-07 00:50 | 42.58966 | -70.79041 | 5011 ft | 259 kts | 16° |
| 2026-05-07 00:50 | 42.60655 | -70.78185 | 5015 ft | 259 kts | 15° |
| 2026-05-07 00:51 | 42.62337 | -70.77344 | 4990 ft | 254 kts | 15° |
| 2026-05-07 00:51 | 42.63953 | -70.76608 | 4985 ft | 240 kts | 11° |
| 2026-05-07 00:51 | 42.65519 | -70.75991 | 4975 ft | 228 kts | 9° |
| 2026-05-07 00:51 | 42.67021 | -70.75425 | 4989 ft | 222 kts | 8° |
| 2026-05-07 00:52 | 42.68521 | -70.74881 | 5000 ft | 223 kts | 8° |
| 2026-05-07 00:52 | 42.70034 | -70.74331 | 5009 ft | 227 kts | 9° |
| 2026-05-07 00:52 | 42.71547 | -70.73770 | 5006 ft | 229 kts | 9° |
| 2026-05-07 00:52 | 42.73092 | -70.73192 | 5000 ft | 229 kts | 9° |
| 2026-05-07 00:53 | 42.74625 | -70.72612 | 5005 ft | 229 kts | 9° |
| 2026-05-07 00:53 | 42.76159 | -70.72029 | 4991 ft | 229 kts | 9° |
| 2026-05-07 00:53 | 42.77726 | -70.71410 | 5045 ft | 247 kts | 11° |
| 2026-05-07 00:53 | 42.79424 | -70.70677 | 5031 ft | 261 kts | 13° |
| 2026-05-07 00:54 | 42.81130 | -70.69851 | 4998 ft | 263 kts | 17° |
| 2026-05-07 00:54 | 42.82782 | -70.68725 | 4995 ft | 264 kts | 25° |
| 2026-05-07 00:54 | 42.84381 | -70.67491 | 4987 ft | 264 kts | 25° |
| 2026-05-07 00:54 | 42.85978 | -70.66243 | 4989 ft | 264 kts | 25° |
| 2026-05-07 00:55 | 42.87566 | -70.64995 | 4983 ft | 264 kts | 26° |
| 2026-05-07 00:55 | 42.89160 | -70.63744 | 4966 ft | 264 kts | 26° |
| 2026-05-07 00:55 | 42.90734 | -70.62507 | 4968 ft | 264 kts | 26° |
| 2026-05-07 00:55 | 42.92336 | -70.61289 | 4961 ft | 262 kts | 18° |
| 2026-05-07 00:56 | 42.94053 | -70.60890 | 4968 ft | 243 kts | 347° |
| 2026-05-07 00:56 | 42.95556 | -70.61674 | 4977 ft | 225 kts | 317° |
| 2026-05-07 00:56 | 42.96530 | -70.63259 | 4968 ft | 216 kts | 292° |
| 2026-05-07 00:56 | 42.96882 | -70.65209 | 4977 ft | 212 kts | 269° |
| 2026-05-07 00:57 | 42.96573 | -70.67154 | 4972 ft | 213 kts | 245° |
| 2026-05-07 00:57 | 42.95693 | -70.68775 | 4918 ft | 214 kts | 225° |
| 2026-05-07 00:57 | 42.94425 | -70.69845 | 4604 ft | 219 kts | 210° |
| 2026-05-07 00:57 | 42.93011 | -70.70660 | 4268 ft | 221 kts | 207° |
| 2026-05-07 00:58 | 42.91584 | -70.71431 | 4001 ft | 219 kts | 207° |
| 2026-05-07 00:58 | 42.90189 | -70.72179 | 3899 ft | 213 kts | 207° |
| 2026-05-07 00:58 | 42.88808 | -70.72923 | 3868 ft | 214 kts | 207° |
| 2026-05-07 00:58 | 42.87419 | -70.73677 | 3837 ft | 216 kts | 207° |
| 2026-05-07 00:59 | 42.84580 | -70.75227 | 3771 ft | 226 kts | 207° |
| 2026-05-07 00:59 | 42.83106 | -70.76035 | 3739 ft | 230 kts | 207° |
| 2026-05-07 00:59 | 42.81634 | -70.76840 | 3696 ft | 231 kts | 207° |
| 2026-05-07 01:00 | 42.80143 | -70.77656 | 3649 ft | 230 kts | 207° |
| 2026-05-07 01:00 | 42.78677 | -70.78457 | 3600 ft | 222 kts | 207° |
| 2026-05-07 01:00 | 42.77284 | -70.79216 | 3552 ft | 209 kts | 207° |
| 2026-05-07 01:00 | 42.75972 | -70.79932 | 3504 ft | 198 kts | 208° |
| 2026-05-07 01:01 | 42.74706 | -70.80626 | 3497 ft | 196 kts | 208° |
| 2026-05-07 01:01 | 42.73424 | -70.81332 | 3488 ft | 200 kts | 207° |
| 2026-05-07 01:01 | 42.72121 | -70.82049 | 3463 ft | 203 kts | 207° |
| 2026-05-07 01:01 | 42.70810 | -70.82768 | 3429 ft | 203 kts | 208° |
| 2026-05-07 01:02 | 42.69516 | -70.83478 | 3396 ft | 203 kts | 207° |
| 2026-05-07 01:02 | 42.68200 | -70.84199 | 3369 ft | 203 kts | 207° |
| 2026-05-07 01:02 | 42.66886 | -70.84918 | 3327 ft | 204 kts | 208° |
| 2026-05-07 01:02 | 42.65571 | -70.85638 | 3300 ft | 203 kts | 208° |
| 2026-05-07 01:03 | 42.64271 | -70.86347 | 3251 ft | 197 kts | 208° |
| 2026-05-07 01:03 | 42.63025 | -70.87026 | 3212 ft | 190 kts | 208° |
| 2026-05-07 01:03 | 42.61842 | -70.87773 | 3195 ft | 185 kts | 212° |
| 2026-05-07 01:03 | 42.60668 | -70.88517 | 3157 ft | 188 kts | 211° |
| 2026-05-07 01:04 | 42.59439 | -70.89241 | 3053 ft | 196 kts | 208° |
| 2026-05-07 01:04 | 42.58181 | -70.89922 | 2983 ft | 190 kts | 207° |
| 2026-05-07 01:04 | 42.56992 | -70.90532 | 2981 ft | 176 kts | 207° |
| 2026-05-07 01:04 | 42.55852 | -70.91105 | 3009 ft | 174 kts | 208° |
| 2026-05-07 01:05 | 42.54746 | -70.91653 | 2999 ft | 169 kts | 208° |
| 2026-05-07 01:05 | 42.53664 | -70.92183 | 2998 ft | 161 kts | 208° |
| 2026-05-07 01:05 | 42.52629 | -70.92689 | 2988 ft | 157 kts | 208° |
| 2026-05-07 01:05 | 42.51597 | -70.93194 | 2984 ft | 158 kts | 207° |
| 2026-05-07 01:06 | 42.50561 | -70.93700 | 2915 ft | 158 kts | 208° |
| 2026-05-07 01:06 | 42.49511 | -70.94207 | 2603 ft | 157 kts | 208° |
| 2026-05-07 01:06 | 42.48499 | -70.94693 | 2374 ft | 147 kts | 208° |
| 2026-05-07 01:06 | 42.47580 | -70.95136 | 2159 ft | 133 kts | 207° |
| 2026-05-07 01:07 | 42.46746 | -70.95540 | 1987 ft | 122 kts | 207° |
| 2026-05-07 01:07 | 42.45951 | -70.95929 | 1854 ft | 124 kts | 207° |
| 2026-05-07 01:07 | 42.45138 | -70.96324 | 1694 ft | 126 kts | 207° |
| 2026-05-07 01:07 | 42.44324 | -70.96715 | 1542 ft | 118 kts | 206° |
| 2026-05-07 01:08 | 42.43552 | -70.97091 | 1367 ft | 121 kts | 206° |
| 2026-05-07 01:08 | 42.42733 | -70.97489 | 1195 ft | 126 kts | 204° |
| 2026-05-07 01:08 | 42.41909 | -70.97888 | 999 ft | 126 kts | 206° |
| 2026-05-07 01:08 | 42.41068 | -70.98295 | 830 ft | 130 kts | 204° |
| 2026-05-07 01:09 | 42.40228 | -70.98702 | 660 ft | 125 kts | 201° |
| 2026-05-07 01:09 | 42.39423 | -70.99113 | 493 ft | 122 kts | 203° |
| 2026-05-07 01:09 | 42.38602 | -70.99528 | 374 ft | 126 kts | 198° |
| 2026-05-07 01:09 | 42.37756 | -70.99887 | 143 ft | 130 kts | 201° |
| 2026-05-07 01:10 | 42.36941 | -71.00305 | 29 ft | 117 kts | 199° |
| 2026-05-07 01:10 | 42.36301 | -71.00606 | 26 ft | 76 kts | 199° |
| 2026-05-07 01:10 | 42.35997 | -71.00790 | 27 ft | 18 kts | 229° |
| 2026-05-07 01:10 | 42.35941 | -71.00877 | 27 ft | 0 kts | 230° |
| 2026-05-07 01:11 | 42.35940 | -71.00879 | 26 ft | 0 kts | 230° |
| 2026-05-07 01:11 | 42.35934 | -71.00888 | 25 ft | 2 kts | 230° |
| 2026-05-07 01:11 | 42.35919 | -71.00912 | 25 ft | 5 kts | 229° |
| 2026-05-07 01:11 | 42.35893 | -71.00952 | 25 ft | 7 kts | 228° |
| 2026-05-07 01:12 | 42.35858 | -71.01004 | 27 ft | 8 kts | 230° |
| 2026-05-07 01:12 | 42.35833 | -71.01082 | 24 ft | 10 kts | 261° |
| 2026-05-07 01:12 | 42.35839 | -71.01183 | 24 ft | 12 kts | 277° |
| 2026-05-07 01:12 | 42.35852 | -71.01302 | 27 ft | 14 kts | 282° |
| 2026-05-07 01:13 | 42.35862 | -71.01417 | 28 ft | 12 kts | 284° |
| 2026-05-07 01:13 | 42.35884 | -71.01534 | 25 ft | 2 kts | 283° |
| 2026-05-07 01:13 | 42.35891 | -71.01537 | 26 ft | 2 kts | 340° |
| 2026-05-07 01:13 | 42.35908 | -71.01537 | 26 ft | 3 kts | 13° |
| 2026-05-07 01:14 | 42.35931 | -71.01528 | 28 ft | 4 kts | 15° |
| 2026-05-07 01:14 | 42.35958 | -71.01517 | 24 ft | 4 kts | 22° |
| 2026-05-07 01:14 | 42.35985 | -71.01503 | 26 ft | 4 kts | 19° |
| 2026-05-07 01:14 | 42.36004 | -71.01494 | 28 ft | 5 kts | 19° |
| 2026-05-07 01:15 | 42.36044 | -71.01475 | 24 ft | 7 kts | 21° |
| 2026-05-07 01:15 | 42.36091 | -71.01452 | 27 ft | 7 kts | 19° |
| 2026-05-07 01:15 | 42.36137 | -71.01431 | 24 ft | 7 kts | 14° |
| 2026-05-07 01:15 | 42.36177 | -71.01457 | 26 ft | 7 kts | 300° |
| 2026-05-07 01:16 | 42.36215 | -71.01487 | 26 ft | 7 kts | 1° |
| 2026-05-07 01:16 | 42.36259 | -71.01469 | 26 ft | 7 kts | 20° |
| 2026-05-07 01:16 | 42.36301 | -71.01466 | 25 ft | 6 kts | 322° |
| 2026-05-07 01:16 | 42.36310 | -71.01495 | 27 ft | 0 kts | 288° |
| 2026-05-07 01:17 | 42.36312 | -71.01504 | 26 ft | 2 kts | 288° |
| 2026-05-07 01:17 | 42.36317 | -71.01521 | 25 ft | 2 kts | 290° |
| 2026-05-07 01:18 | 42.36321 | -71.01537 | 25 ft | 2 kts | 291° |
| 2026-05-07 01:18 | 42.36325 | -71.01552 | 28 ft | 2 kts | 290° |
| 2026-05-07 01:18 | 42.36326 | -71.01553 | 28 ft | 0 kts | 290° |